sensor_id;sensor_type;location;lat;lon;timestamp;P1;durP1;ratioP1;P2;durP2;ratioP2
35126;SDS011;21300;52.006;5.798;2023-10-13T00:00:05;12.57;;;7.25;;
35126;SDS011;21300;52.006;5.798;2023-10-13T00:03:11;13.82;;;8.10;;
35126;SDS011;21300;52.006;5.798;2023-10-13T00:06:04;10.48;;;6.38;;
35126;SDS011;21300;52.006;5.798;2023-10-13T00:08:51;12.52;;;6.97;;
35126;SDS011;21300;52.006;5.798;2023-10-13T00:11:37;11.98;;;6.80;;
35126;SDS011;21300;52.006;5.798;2023-10-13T00:14:30;14.25;;;6.47;;
35126;SDS011;21300;52.006;5.798;2023-10-13T00:17:18;11.50;;;6.50;;
35126;SDS011;21300;52.006;5.798;2023-10-13T00:20:05;15.57;;;7.93;;
35126;SDS011;21300;52.006;5.798;2023-10-13T00:22:57;11.52;;;6.32;;
35126;SDS011;21300;52.006;5.798;2023-10-13T00:25:44;9.23;;;5.75;;
35126;SDS011;21300;52.006;5.798;2023-10-13T00:28:35;11.13;;;6.45;;
35126;SDS011;21300;52.006;5.798;2023-10-13T00:31:21;12.35;;;6.80;;
35126;SDS011;21300;52.006;5.798;2023-10-13T00:34:10;13.55;;;6.63;;
35126;SDS011;21300;52.006;5.798;2023-10-13T00:36:56;16.88;;;7.18;;
35126;SDS011;21300;52.006;5.798;2023-10-13T00:40:12;10.02;;;6.22;;
35126;SDS011;21300;52.006;5.798;2023-10-13T00:43:22;10.45;;;6.03;;
35126;SDS011;21300;52.006;5.798;2023-10-13T00:46:08;10.65;;;6.60;;
35126;SDS011;21300;52.006;5.798;2023-10-13T00:48:58;10.27;;;5.97;;
35126;SDS011;21300;52.006;5.798;2023-10-13T00:51:44;11.68;;;6.43;;
35126;SDS011;21300;52.006;5.798;2023-10-13T00:54:34;10.30;;;6.53;;
35126;SDS011;21300;52.006;5.798;2023-10-13T00:57:22;12.40;;;6.40;;
35126;SDS011;21300;52.006;5.798;2023-10-13T01:00:17;11.17;;;6.50;;
35126;SDS011;21300;52.006;5.798;2023-10-13T01:03:10;9.00;;;5.00;;
35126;SDS011;21300;52.006;5.798;2023-10-13T01:05:57;9.85;;;5.82;;
35126;SDS011;21300;52.006;5.798;2023-10-13T01:08:45;11.40;;;5.88;;
35126;SDS011;21300;52.006;5.798;2023-10-13T01:11:37;10.38;;;5.57;;
35126;SDS011;21300;52.006;5.798;2023-10-13T01:14:28;11.60;;;5.75;;
35126;SDS011;21300;52.006;5.798;2023-10-13T01:17:14;11.05;;;6.20;;
35126;SDS011;21300;52.006;5.798;2023-10-13T01:20:00;10.52;;;5.97;;
35126;SDS011;21300;52.006;5.798;2023-10-13T01:22:46;11.43;;;5.60;;
35126;SDS011;21300;52.006;5.798;2023-10-13T01:25:41;10.80;;;6.57;;
35126;SDS011;21300;52.006;5.798;2023-10-13T01:28:27;12.57;;;6.28;;
35126;SDS011;21300;52.006;5.798;2023-10-13T01:31:13;12.57;;;5.78;;
35126;SDS011;21300;52.006;5.798;2023-10-13T01:34:09;9.30;;;5.10;;
35126;SDS011;21300;52.006;5.798;2023-10-13T01:36:58;9.45;;;6.07;;
35126;SDS011;21300;52.006;5.798;2023-10-13T01:39:50;12.55;;;6.22;;
35126;SDS011;21300;52.006;5.798;2023-10-13T01:42:36;9.48;;;5.43;;
35126;SDS011;21300;52.006;5.798;2023-10-13T01:45:22;8.70;;;5.90;;
35126;SDS011;21300;52.006;5.798;2023-10-13T01:48:14;9.48;;;6.10;;
35126;SDS011;21300;52.006;5.798;2023-10-13T01:51:03;9.40;;;5.32;;
35126;SDS011;21300;52.006;5.798;2023-10-13T01:53:55;9.40;;;5.13;;
35126;SDS011;21300;52.006;5.798;2023-10-13T01:56:43;7.60;;;5.25;;
35126;SDS011;21300;52.006;5.798;2023-10-13T01:59:29;11.10;;;5.68;;
35126;SDS011;21300;52.006;5.798;2023-10-13T02:02:15;11.07;;;5.35;;
35126;SDS011;21300;52.006;5.798;2023-10-13T02:05:14;9.32;;;5.63;;
35126;SDS011;21300;52.006;5.798;2023-10-13T02:08:02;10.30;;;5.45;;
35126;SDS011;21300;52.006;5.798;2023-10-13T02:10:48;9.82;;;5.20;;
35126;SDS011;21300;52.006;5.798;2023-10-13T02:13:35;8.05;;;5.03;;
35126;SDS011;21300;52.006;5.798;2023-10-13T02:16:33;11.75;;;5.25;;
35126;SDS011;21300;52.006;5.798;2023-10-13T02:19:22;8.70;;;4.63;;
35126;SDS011;21300;52.006;5.798;2023-10-13T02:22:12;10.77;;;5.45;;
35126;SDS011;21300;52.006;5.798;2023-10-13T02:25:17;8.82;;;4.78;;
35126;SDS011;21300;52.006;5.798;2023-10-13T02:28:20;7.93;;;4.70;;
35126;SDS011;21300;52.006;5.798;2023-10-13T02:31:13;8.48;;;5.28;;
35126;SDS011;21300;52.006;5.798;2023-10-13T02:33:59;7.03;;;4.50;;
35126;SDS011;21300;52.006;5.798;2023-10-13T02:36:46;8.55;;;4.63;;
35126;SDS011;21300;52.006;5.798;2023-10-13T02:39:34;7.63;;;4.70;;
35126;SDS011;21300;52.006;5.798;2023-10-13T02:42:21;7.05;;;4.03;;
35126;SDS011;21300;52.006;5.798;2023-10-13T02:45:10;8.68;;;5.07;;
35126;SDS011;21300;52.006;5.798;2023-10-13T02:47:58;8.52;;;4.30;;
35126;SDS011;21300;52.006;5.798;2023-10-13T02:50:59;6.88;;;4.05;;
35126;SDS011;21300;52.006;5.798;2023-10-13T02:53:52;6.20;;;3.80;;
35126;SDS011;21300;52.006;5.798;2023-10-13T02:56:38;7.30;;;3.90;;
35126;SDS011;21300;52.006;5.798;2023-10-13T02:59:34;6.15;;;3.95;;
35126;SDS011;21300;52.006;5.798;2023-10-13T03:02:25;5.85;;;3.45;;
35126;SDS011;21300;52.006;5.798;2023-10-13T03:05:11;8.77;;;4.35;;
35126;SDS011;21300;52.006;5.798;2023-10-13T03:07:58;5.97;;;3.38;;
35126;SDS011;21300;52.006;5.798;2023-10-13T03:10:49;6.55;;;3.70;;
35126;SDS011;21300;52.006;5.798;2023-10-13T03:13:40;8.20;;;3.28;;
35126;SDS011;21300;52.006;5.798;2023-10-13T03:16:30;5.38;;;3.38;;
35126;SDS011;21300;52.006;5.798;2023-10-13T03:19:16;6.75;;;3.70;;
35126;SDS011;21300;52.006;5.798;2023-10-13T03:22:05;6.43;;;3.33;;
35126;SDS011;21300;52.006;5.798;2023-10-13T03:24:55;5.53;;;3.35;;
35126;SDS011;21300;52.006;5.798;2023-10-13T03:27:45;6.53;;;3.35;;
35126;SDS011;21300;52.006;5.798;2023-10-13T03:30:46;6.07;;;3.28;;
35126;SDS011;21300;52.006;5.798;2023-10-13T03:33:38;4.82;;;2.90;;
35126;SDS011;21300;52.006;5.798;2023-10-13T03:36:23;5.43;;;3.33;;
35126;SDS011;21300;52.006;5.798;2023-10-13T03:39:32;4.90;;;2.97;;
35126;SDS011;21300;52.006;5.798;2023-10-13T03:42:18;4.30;;;2.97;;
35126;SDS011;21300;52.006;5.798;2023-10-13T03:45:07;5.47;;;3.22;;
35126;SDS011;21300;52.006;5.798;2023-10-13T03:47:56;5.65;;;3.00;;
35126;SDS011;21300;52.006;5.798;2023-10-13T03:50:42;6.40;;;3.60;;
35126;SDS011;21300;52.006;5.798;2023-10-13T03:53:43;6.85;;;3.53;;
35126;SDS011;21300;52.006;5.798;2023-10-13T03:56:40;7.18;;;3.83;;
35126;SDS011;21300;52.006;5.798;2023-10-13T03:59:26;7.47;;;3.35;;
35126;SDS011;21300;52.006;5.798;2023-10-13T04:02:20;6.03;;;3.72;;
35126;SDS011;21300;52.006;5.798;2023-10-13T04:05:06;8.15;;;3.67;;
35126;SDS011;21300;52.006;5.798;2023-10-13T04:07:54;5.22;;;3.65;;
35126;SDS011;21300;52.006;5.798;2023-10-13T04:11:05;6.25;;;3.88;;
35126;SDS011;21300;52.006;5.798;2023-10-13T04:14:09;5.68;;;3.83;;
35126;SDS011;21300;52.006;5.798;2023-10-13T04:17:30;6.55;;;4.10;;
35126;SDS011;21300;52.006;5.798;2023-10-13T04:20:26;6.93;;;3.75;;
35126;SDS011;21300;52.006;5.798;2023-10-13T04:23:14;5.65;;;3.55;;
35126;SDS011;21300;52.006;5.798;2023-10-13T04:26:05;7.00;;;3.72;;
35126;SDS011;21300;52.006;5.798;2023-10-13T04:28:54;7.10;;;4.25;;
35126;SDS011;21300;52.006;5.798;2023-10-13T04:31:42;6.43;;;3.47;;
35126;SDS011;21300;52.006;5.798;2023-10-13T04:34:44;6.68;;;3.70;;
35126;SDS011;21300;52.006;5.798;2023-10-13T04:37:36;6.63;;;3.80;;
35126;SDS011;21300;52.006;5.798;2023-10-13T04:40:40;7.30;;;3.50;;
35126;SDS011;21300;52.006;5.798;2023-10-13T04:43:43;7.93;;;4.05;;
35126;SDS011;21300;52.006;5.798;2023-10-13T04:46:57;8.80;;;4.03;;
35126;SDS011;21300;52.006;5.798;2023-10-13T04:49:44;6.60;;;3.78;;
35126;SDS011;21300;52.006;5.798;2023-10-13T04:52:30;8.40;;;4.22;;
35126;SDS011;21300;52.006;5.798;2023-10-13T04:55:52;9.15;;;4.85;;
35126;SDS011;21300;52.006;5.798;2023-10-13T04:58:56;10.30;;;5.00;;
35126;SDS011;21300;52.006;5.798;2023-10-13T05:02:03;10.52;;;5.32;;
35126;SDS011;21300;52.006;5.798;2023-10-13T05:05:24;8.57;;;4.95;;
35126;SDS011;21300;52.006;5.798;2023-10-13T05:11:34;8.85;;;5.00;;
35126;SDS011;21300;52.006;5.798;2023-10-13T05:14:39;11.95;;;6.22;;
35126;SDS011;21300;52.006;5.798;2023-10-13T05:17:43;10.50;;;5.35;;
35126;SDS011;21300;52.006;5.798;2023-10-13T05:20:48;11.85;;;6.53;;
35126;SDS011;21300;52.006;5.798;2023-10-13T05:23:52;9.93;;;5.85;;
35126;SDS011;21300;52.006;5.798;2023-10-13T05:27:17;10.93;;;5.40;;
35126;SDS011;21300;52.006;5.798;2023-10-13T05:30:21;12.25;;;6.20;;
35126;SDS011;21300;52.006;5.798;2023-10-13T05:33:26;7.82;;;5.00;;
35126;SDS011;21300;52.006;5.798;2023-10-13T05:36:30;7.55;;;5.35;;
35126;SDS011;21300;52.006;5.798;2023-10-13T05:39:35;7.47;;;4.88;;
35126;SDS011;21300;52.006;5.798;2023-10-13T05:42:39;8.63;;;4.65;;
35126;SDS011;21300;52.006;5.798;2023-10-13T05:45:43;7.00;;;4.57;;
35126;SDS011;21300;52.006;5.798;2023-10-13T05:48:48;8.07;;;4.55;;
35126;SDS011;21300;52.006;5.798;2023-10-13T05:51:43;7.10;;;4.28;;
35126;SDS011;21300;52.006;5.798;2023-10-13T05:54:43;7.32;;;4.43;;
35126;SDS011;21300;52.006;5.798;2023-10-13T05:57:47;6.10;;;3.67;;
35126;SDS011;21300;52.006;5.798;2023-10-13T06:00:53;6.28;;;3.92;;
35126;SDS011;21300;52.006;5.798;2023-10-13T06:07:22;6.35;;;4.15;;
35126;SDS011;21300;52.006;5.798;2023-10-13T06:10:27;6.03;;;3.42;;
35126;SDS011;21300;52.006;5.798;2023-10-13T06:13:31;7.88;;;3.72;;
35126;SDS011;21300;52.006;5.798;2023-10-13T06:16:36;7.03;;;4.30;;
35126;SDS011;21300;52.006;5.798;2023-10-13T06:19:40;5.18;;;3.50;;
35126;SDS011;21300;52.006;5.798;2023-10-13T06:22:48;5.78;;;4.05;;
35126;SDS011;21300;52.006;5.798;2023-10-13T06:25:53;6.72;;;3.97;;
35126;SDS011;21300;52.006;5.798;2023-10-13T06:28:58;6.43;;;3.53;;
35126;SDS011;21300;52.006;5.798;2023-10-13T06:31:44;5.20;;;3.65;;
35126;SDS011;21300;52.006;5.798;2023-10-13T06:34:31;7.95;;;3.83;;
35126;SDS011;21300;52.006;5.798;2023-10-13T06:37:23;5.35;;;3.17;;
35126;SDS011;21300;52.006;5.798;2023-10-13T06:40:16;9.63;;;4.60;;
35126;SDS011;21300;52.006;5.798;2023-10-13T06:43:18;5.75;;;3.78;;
35126;SDS011;21300;52.006;5.798;2023-10-13T06:46:07;5.28;;;3.60;;
35126;SDS011;21300;52.006;5.798;2023-10-13T06:48:58;6.60;;;3.33;;
35126;SDS011;21300;52.006;5.798;2023-10-13T06:51:45;4.38;;;3.28;;
35126;SDS011;21300;52.006;5.798;2023-10-13T06:54:32;5.07;;;3.22;;
35126;SDS011;21300;52.006;5.798;2023-10-13T06:57:20;6.20;;;3.60;;
35126;SDS011;21300;52.006;5.798;2023-10-13T07:00:06;5.47;;;3.67;;
35126;SDS011;21300;52.006;5.798;2023-10-13T07:02:54;6.30;;;3.75;;
35126;SDS011;21300;52.006;5.798;2023-10-13T07:05:51;5.70;;;3.35;;
35126;SDS011;21300;52.006;5.798;2023-10-13T07:08:37;5.20;;;3.20;;
35126;SDS011;21300;52.006;5.798;2023-10-13T07:11:27;6.55;;;3.63;;
35126;SDS011;21300;52.006;5.798;2023-10-13T07:17:05;6.55;;;3.90;;
35126;SDS011;21300;52.006;5.798;2023-10-13T07:19:53;4.78;;;3.28;;
35126;SDS011;21300;52.006;5.798;2023-10-13T07:22:41;5.50;;;3.20;;
35126;SDS011;21300;52.006;5.798;2023-10-13T07:25:40;7.60;;;3.63;;
35126;SDS011;21300;52.006;5.798;2023-10-13T07:28:26;4.85;;;3.13;;
35126;SDS011;21300;52.006;5.798;2023-10-13T07:31:12;7.07;;;3.25;;
35126;SDS011;21300;52.006;5.798;2023-10-13T07:34:00;6.07;;;3.42;;
35126;SDS011;21300;52.006;5.798;2023-10-13T07:36:53;5.35;;;3.38;;
35126;SDS011;21300;52.006;5.798;2023-10-13T07:39:45;6.78;;;3.75;;
35126;SDS011;21300;52.006;5.798;2023-10-13T07:42:35;9.40;;;3.83;;
35126;SDS011;21300;52.006;5.798;2023-10-13T07:45:28;5.30;;;3.60;;
35126;SDS011;21300;52.006;5.798;2023-10-13T07:48:24;7.82;;;3.85;;
35126;SDS011;21300;52.006;5.798;2023-10-13T07:51:11;4.88;;;3.25;;
35126;SDS011;21300;52.006;5.798;2023-10-13T07:54:01;4.95;;;3.40;;
35126;SDS011;21300;52.006;5.798;2023-10-13T07:56:56;6.00;;;3.90;;
35126;SDS011;21300;52.006;5.798;2023-10-13T07:59:42;9.15;;;3.70;;
35126;SDS011;21300;52.006;5.798;2023-10-13T08:05:53;7.95;;;4.15;;
35126;SDS011;21300;52.006;5.798;2023-10-13T08:08:52;6.57;;;3.88;;
35126;SDS011;21300;52.006;5.798;2023-10-13T08:11:44;9.45;;;3.72;;
35126;SDS011;21300;52.006;5.798;2023-10-13T08:14:31;6.75;;;3.42;;
35126;SDS011;21300;52.006;5.798;2023-10-13T08:17:19;6.70;;;3.72;;
35126;SDS011;21300;52.006;5.798;2023-10-13T08:20:10;5.57;;;3.83;;
35126;SDS011;21300;52.006;5.798;2023-10-13T08:22:57;7.57;;;3.60;;
35126;SDS011;21300;52.006;5.798;2023-10-13T08:25:58;4.80;;;3.03;;
35126;SDS011;21300;52.006;5.798;2023-10-13T08:29:03;7.47;;;3.47;;
35126;SDS011;21300;52.006;5.798;2023-10-13T08:32:08;7.75;;;3.80;;
35126;SDS011;21300;52.006;5.798;2023-10-13T08:35:00;6.55;;;3.55;;
35126;SDS011;21300;52.006;5.798;2023-10-13T08:37:49;7.47;;;3.72;;
35126;SDS011;21300;52.006;5.798;2023-10-13T08:40:38;6.97;;;3.47;;
35126;SDS011;21300;52.006;5.798;2023-10-13T08:43:30;6.85;;;3.40;;
35126;SDS011;21300;52.006;5.798;2023-10-13T08:46:29;5.22;;;3.40;;
35126;SDS011;21300;52.006;5.798;2023-10-13T08:49:24;6.95;;;3.63;;
35126;SDS011;21300;52.006;5.798;2023-10-13T08:52:14;6.95;;;3.30;;
35126;SDS011;21300;52.006;5.798;2023-10-13T08:55:21;5.78;;;3.17;;
35126;SDS011;21300;52.006;5.798;2023-10-13T08:58:47;5.70;;;3.15;;
35126;SDS011;21300;52.006;5.798;2023-10-13T09:01:39;8.40;;;3.40;;
35126;SDS011;21300;52.006;5.798;2023-10-13T09:04:33;4.75;;;3.22;;
35126;SDS011;21300;52.006;5.798;2023-10-13T09:07:19;5.05;;;2.75;;
35126;SDS011;21300;52.006;5.798;2023-10-13T09:10:10;7.25;;;4.13;;
35126;SDS011;21300;52.006;5.798;2023-10-13T09:13:18;11.77;;;4.00;;
35126;SDS011;21300;52.006;5.798;2023-10-13T09:16:10;6.97;;;3.55;;
35126;SDS011;21300;52.006;5.798;2023-10-13T09:19:17;7.05;;;4.25;;
35126;SDS011;21300;52.006;5.798;2023-10-13T09:22:03;6.28;;;3.40;;
35126;SDS011;21300;52.006;5.798;2023-10-13T09:24:49;6.63;;;3.28;;
35126;SDS011;21300;52.006;5.798;2023-10-13T09:27:36;10.27;;;3.47;;
35126;SDS011;21300;52.006;5.798;2023-10-13T09:30:23;6.82;;;3.80;;
35126;SDS011;21300;52.006;5.798;2023-10-13T09:33:09;5.18;;;3.35;;
35126;SDS011;21300;52.006;5.798;2023-10-13T09:36:01;8.40;;;4.05;;
35126;SDS011;21300;52.006;5.798;2023-10-13T09:38:50;8.73;;;4.22;;
35126;SDS011;21300;52.006;5.798;2023-10-13T09:41:56;8.27;;;3.30;;
35126;SDS011;21300;52.006;5.798;2023-10-13T09:44:42;6.68;;;3.47;;
35126;SDS011;21300;52.006;5.798;2023-10-13T09:47:35;5.55;;;3.55;;
35126;SDS011;21300;52.006;5.798;2023-10-13T09:50:25;7.15;;;4.15;;
35126;SDS011;21300;52.006;5.798;2023-10-13T09:53:18;5.05;;;3.28;;
35126;SDS011;21300;52.006;5.798;2023-10-13T09:56:11;6.38;;;3.72;;
35126;SDS011;21300;52.006;5.798;2023-10-13T09:59:06;5.55;;;3.72;;
35126;SDS011;21300;52.006;5.798;2023-10-13T10:01:58;7.50;;;4.07;;
35126;SDS011;21300;52.006;5.798;2023-10-13T10:04:51;6.28;;;3.63;;
35126;SDS011;21300;52.006;5.798;2023-10-13T10:07:38;7.13;;;3.10;;
35126;SDS011;21300;52.006;5.798;2023-10-13T10:10:48;4.75;;;3.22;;
35126;SDS011;21300;52.006;5.798;2023-10-13T10:14:03;5.43;;;3.30;;
35126;SDS011;21300;52.006;5.798;2023-10-13T10:17:10;8.93;;;4.13;;
35126;SDS011;21300;52.006;5.798;2023-10-13T10:19:56;6.35;;;3.85;;
35126;SDS011;21300;52.006;5.798;2023-10-13T10:22:42;7.20;;;3.65;;
35126;SDS011;21300;52.006;5.798;2023-10-13T10:25:32;6.22;;;3.72;;
35126;SDS011;21300;52.006;5.798;2023-10-13T10:28:23;4.70;;;2.95;;
35126;SDS011;21300;52.006;5.798;2023-10-13T10:31:09;7.13;;;3.58;;
35126;SDS011;21300;52.006;5.798;2023-10-13T10:34:12;4.88;;;3.55;;
35126;SDS011;21300;52.006;5.798;2023-10-13T10:37:07;6.78;;;3.38;;
35126;SDS011;21300;52.006;5.798;2023-10-13T10:39:54;9.13;;;3.63;;
35126;SDS011;21300;52.006;5.798;2023-10-13T10:42:42;7.22;;;3.70;;
35126;SDS011;21300;52.006;5.798;2023-10-13T10:45:28;5.18;;;2.47;;
35126;SDS011;21300;52.006;5.798;2023-10-13T10:48:20;5.15;;;3.00;;
35126;SDS011;21300;52.006;5.798;2023-10-13T10:51:06;8.10;;;3.38;;
35126;SDS011;21300;52.006;5.798;2023-10-13T10:53:54;6.45;;;3.30;;
35126;SDS011;21300;52.006;5.798;2023-10-13T10:56:42;9.55;;;3.78;;
35126;SDS011;21300;52.006;5.798;2023-10-13T10:59:33;6.25;;;3.88;;
35126;SDS011;21300;52.006;5.798;2023-10-13T11:02:29;5.40;;;3.50;;
35126;SDS011;21300;52.006;5.798;2023-10-13T11:05:16;6.38;;;3.92;;
35126;SDS011;21300;52.006;5.798;2023-10-13T11:08:05;3.53;;;2.95;;
35126;SDS011;21300;52.006;5.798;2023-10-13T11:10:58;6.28;;;4.00;;
35126;SDS011;21300;52.006;5.798;2023-10-13T11:13:51;4.97;;;3.10;;
35126;SDS011;21300;52.006;5.798;2023-10-13T11:16:46;6.13;;;3.15;;
35126;SDS011;21300;52.006;5.798;2023-10-13T11:20:07;3.72;;;2.85;;
35126;SDS011;21300;52.006;5.798;2023-10-13T11:23:10;5.28;;;3.40;;
35126;SDS011;21300;52.006;5.798;2023-10-13T11:25:57;6.70;;;3.80;;
35126;SDS011;21300;52.006;5.798;2023-10-13T11:28:50;5.35;;;3.30;;
35126;SDS011;21300;52.006;5.798;2023-10-13T11:31:36;7.53;;;3.25;;
35126;SDS011;21300;52.006;5.798;2023-10-13T11:34:23;8.25;;;3.70;;
35126;SDS011;21300;52.006;5.798;2023-10-13T11:37:09;5.60;;;3.53;;
35126;SDS011;21300;52.006;5.798;2023-10-13T11:40:13;6.10;;;3.70;;
35126;SDS011;21300;52.006;5.798;2023-10-13T11:46:02;6.40;;;3.58;;
35126;SDS011;21300;52.006;5.798;2023-10-13T11:48:54;6.63;;;3.63;;
35126;SDS011;21300;52.006;5.798;2023-10-13T11:51:41;4.75;;;3.05;;
35126;SDS011;21300;52.006;5.798;2023-10-13T11:54:36;6.28;;;2.97;;
35126;SDS011;21300;52.006;5.798;2023-10-13T11:57:27;4.78;;;3.30;;
35126;SDS011;21300;52.006;5.798;2023-10-13T12:00:13;5.93;;;3.47;;
35126;SDS011;21300;52.006;5.798;2023-10-13T12:03:11;5.60;;;3.42;;
35126;SDS011;21300;52.006;5.798;2023-10-13T12:06:16;9.95;;;3.33;;
35126;SDS011;21300;52.006;5.798;2023-10-13T12:09:09;5.72;;;2.95;;
35126;SDS011;21300;52.006;5.798;2023-10-13T12:12:01;5.22;;;3.03;;
35126;SDS011;21300;52.006;5.798;2023-10-13T12:14:49;6.55;;;3.35;;
35126;SDS011;21300;52.006;5.798;2023-10-13T12:17:38;6.82;;;3.50;;
35126;SDS011;21300;52.006;5.798;2023-10-13T12:20:30;6.18;;;3.28;;
35126;SDS011;21300;52.006;5.798;2023-10-13T12:23:21;4.60;;;3.22;;
35126;SDS011;21300;52.006;5.798;2023-10-13T12:26:16;5.32;;;3.38;;
35126;SDS011;21300;52.006;5.798;2023-10-13T12:29:05;6.75;;;3.67;;
35126;SDS011;21300;52.006;5.798;2023-10-13T12:31:52;4.40;;;3.15;;
35126;SDS011;21300;52.006;5.798;2023-10-13T12:34:51;12.63;;;4.00;;
35126;SDS011;21300;52.006;5.798;2023-10-13T12:37:45;6.53;;;3.28;;
35126;SDS011;21300;52.006;5.798;2023-10-13T12:40:31;7.43;;;3.42;;
35126;SDS011;21300;52.006;5.798;2023-10-13T12:43:35;6.70;;;3.70;;
35126;SDS011;21300;52.006;5.798;2023-10-13T12:46:40;6.55;;;3.53;;
35126;SDS011;21300;52.006;5.798;2023-10-13T12:49:46;5.25;;;3.20;;
35126;SDS011;21300;52.006;5.798;2023-10-13T12:52:32;7.28;;;3.17;;
35126;SDS011;21300;52.006;5.798;2023-10-13T12:55:18;6.85;;;3.33;;
35126;SDS011;21300;52.006;5.798;2023-10-13T12:58:10;5.70;;;3.53;;
35126;SDS011;21300;52.006;5.798;2023-10-13T13:00:59;6.85;;;3.63;;
35126;SDS011;21300;52.006;5.798;2023-10-13T13:06:41;5.38;;;3.30;;
35126;SDS011;21300;52.006;5.798;2023-10-13T13:09:27;7.72;;;4.07;;
35126;SDS011;21300;52.006;5.798;2023-10-13T13:12:12;5.97;;;3.75;;
35126;SDS011;21300;52.006;5.798;2023-10-13T13:14:58;8.27;;;3.88;;
35126;SDS011;21300;52.006;5.798;2023-10-13T13:20:40;7.22;;;3.10;;
35126;SDS011;21300;52.006;5.798;2023-10-13T13:23:38;7.15;;;2.88;;
35126;SDS011;21300;52.006;5.798;2023-10-13T13:26:25;6.80;;;3.28;;
35126;SDS011;21300;52.006;5.798;2023-10-13T13:29:11;8.25;;;3.50;;
35126;SDS011;21300;52.006;5.798;2023-10-13T13:31:57;7.90;;;3.13;;
35126;SDS011;21300;52.006;5.798;2023-10-13T13:34:43;5.47;;;2.65;;
35126;SDS011;21300;52.006;5.798;2023-10-13T13:37:39;6.10;;;3.00;;
35126;SDS011;21300;52.006;5.798;2023-10-13T13:40:27;5.28;;;2.97;;
35126;SDS011;21300;52.006;5.798;2023-10-13T13:43:21;4.30;;;2.55;;
35126;SDS011;21300;52.006;5.798;2023-10-13T13:46:26;8.70;;;3.25;;
35126;SDS011;21300;52.006;5.798;2023-10-13T13:49:18;6.10;;;3.17;;
35126;SDS011;21300;52.006;5.798;2023-10-13T13:52:14;6.95;;;2.78;;
35126;SDS011;21300;52.006;5.798;2023-10-13T13:55:06;5.53;;;3.53;;
35126;SDS011;21300;52.006;5.798;2023-10-13T13:57:52;7.10;;;3.00;;
35126;SDS011;21300;52.006;5.798;2023-10-13T14:00:40;6.78;;;3.38;;
35126;SDS011;21300;52.006;5.798;2023-10-13T14:03:33;6.03;;;3.17;;
35126;SDS011;21300;52.006;5.798;2023-10-13T14:06:20;5.68;;;3.42;;
35126;SDS011;21300;52.006;5.798;2023-10-13T14:09:12;6.80;;;3.35;;
35126;SDS011;21300;52.006;5.798;2023-10-13T14:12:02;7.47;;;3.38;;
35126;SDS011;21300;52.006;5.798;2023-10-13T14:15:17;4.75;;;2.45;;
35126;SDS011;21300;52.006;5.798;2023-10-13T14:18:09;4.47;;;2.92;;
35126;SDS011;21300;52.006;5.798;2023-10-13T14:21:00;5.35;;;2.72;;
35126;SDS011;21300;52.006;5.798;2023-10-13T14:23:50;7.00;;;2.92;;
35126;SDS011;21300;52.006;5.798;2023-10-13T14:26:39;6.85;;;3.28;;
35126;SDS011;21300;52.006;5.798;2023-10-13T14:29:28;4.80;;;2.90;;
35126;SDS011;21300;52.006;5.798;2023-10-13T14:32:14;5.05;;;2.70;;
35126;SDS011;21300;52.006;5.798;2023-10-13T14:35:00;3.92;;;2.22;;
35126;SDS011;21300;52.006;5.798;2023-10-13T14:40:43;5.68;;;2.88;;
35126;SDS011;21300;52.006;5.798;2023-10-13T14:43:29;3.65;;;2.10;;
35126;SDS011;21300;52.006;5.798;2023-10-13T14:46:15;5.97;;;3.05;;
35126;SDS011;21300;52.006;5.798;2023-10-13T14:49:02;4.18;;;2.40;;
35126;SDS011;21300;52.006;5.798;2023-10-13T14:51:48;7.28;;;3.42;;
35126;SDS011;21300;52.006;5.798;2023-10-13T14:54:35;4.30;;;2.65;;
35126;SDS011;21300;52.006;5.798;2023-10-13T14:57:21;6.20;;;2.88;;
35126;SDS011;21300;52.006;5.798;2023-10-13T15:00:09;5.50;;;2.90;;
35126;SDS011;21300;52.006;5.798;2023-10-13T15:02:58;3.72;;;2.70;;
35126;SDS011;21300;52.006;5.798;2023-10-13T15:05:50;4.13;;;2.38;;
35126;SDS011;21300;52.006;5.798;2023-10-13T15:08:36;6.28;;;3.60;;
35126;SDS011;21300;52.006;5.798;2023-10-13T15:11:22;5.53;;;2.78;;
35126;SDS011;21300;52.006;5.798;2023-10-13T15:14:23;5.28;;;2.63;;
35126;SDS011;21300;52.006;5.798;2023-10-13T15:17:09;5.93;;;2.83;;
35126;SDS011;21300;52.006;5.798;2023-10-13T15:19:55;4.90;;;2.65;;
35126;SDS011;21300;52.006;5.798;2023-10-13T15:22:45;5.97;;;2.88;;
35126;SDS011;21300;52.006;5.798;2023-10-13T15:25:35;5.78;;;3.20;;
35126;SDS011;21300;52.006;5.798;2023-10-13T15:28:34;5.35;;;2.92;;
35126;SDS011;21300;52.006;5.798;2023-10-13T15:31:34;4.38;;;3.05;;
35126;SDS011;21300;52.006;5.798;2023-10-13T15:34:20;4.40;;;2.90;;
35126;SDS011;21300;52.006;5.798;2023-10-13T15:37:08;6.18;;;3.05;;
35126;SDS011;21300;52.006;5.798;2023-10-13T15:39:58;4.03;;;2.20;;
35126;SDS011;21300;52.006;5.798;2023-10-13T15:42:45;8.45;;;3.17;;
35126;SDS011;21300;52.006;5.798;2023-10-13T15:45:31;6.88;;;3.05;;
35126;SDS011;21300;52.006;5.798;2023-10-13T15:48:24;5.70;;;2.58;;
35126;SDS011;21300;52.006;5.798;2023-10-13T15:51:11;6.25;;;3.10;;
35126;SDS011;21300;52.006;5.798;2023-10-13T15:54:00;5.32;;;2.88;;
35126;SDS011;21300;52.006;5.798;2023-10-13T15:56:46;4.35;;;2.78;;
35126;SDS011;21300;52.006;5.798;2023-10-13T15:59:33;4.93;;;2.50;;
35126;SDS011;21300;52.006;5.798;2023-10-13T16:02:22;4.88;;;2.53;;
35126;SDS011;21300;52.006;5.798;2023-10-13T16:05:09;6.35;;;3.05;;
35126;SDS011;21300;52.006;5.798;2023-10-13T16:07:55;4.55;;;3.10;;
35126;SDS011;21300;52.006;5.798;2023-10-13T16:10:41;6.57;;;3.08;;
35126;SDS011;21300;52.006;5.798;2023-10-13T16:13:27;4.47;;;2.67;;
35126;SDS011;21300;52.006;5.798;2023-10-13T16:16:20;4.50;;;2.83;;
35126;SDS011;21300;52.006;5.798;2023-10-13T16:19:10;6.53;;;2.85;;
35126;SDS011;21300;52.006;5.798;2023-10-13T16:21:56;8.00;;;3.65;;
35126;SDS011;21300;52.006;5.798;2023-10-13T16:24:42;4.60;;;2.53;;
35126;SDS011;21300;52.006;5.798;2023-10-13T16:27:33;8.93;;;3.30;;
35126;SDS011;21300;52.006;5.798;2023-10-13T16:30:24;4.93;;;2.92;;
35126;SDS011;21300;52.006;5.798;2023-10-13T16:33:10;5.85;;;3.00;;
35126;SDS011;21300;52.006;5.798;2023-10-13T16:35:56;6.47;;;3.15;;
35126;SDS011;21300;52.006;5.798;2023-10-13T16:38:42;4.15;;;2.63;;
35126;SDS011;21300;52.006;5.798;2023-10-13T16:41:30;4.68;;;2.60;;
35126;SDS011;21300;52.006;5.798;2023-10-13T16:44:16;6.88;;;3.20;;
35126;SDS011;21300;52.006;5.798;2023-10-13T16:47:23;4.60;;;2.58;;
35126;SDS011;21300;52.006;5.798;2023-10-13T16:50:10;6.72;;;2.95;;
35126;SDS011;21300;52.006;5.798;2023-10-13T16:52:56;5.65;;;2.80;;
35126;SDS011;21300;52.006;5.798;2023-10-13T16:55:42;5.38;;;3.00;;
35126;SDS011;21300;52.006;5.798;2023-10-13T16:58:28;7.40;;;2.88;;
35126;SDS011;21300;52.006;5.798;2023-10-13T17:01:19;3.90;;;2.65;;
35126;SDS011;21300;52.006;5.798;2023-10-13T17:04:07;5.20;;;2.90;;
35126;SDS011;21300;52.006;5.798;2023-10-13T17:06:52;4.05;;;2.83;;
35126;SDS011;21300;52.006;5.798;2023-10-13T17:09:39;7.35;;;3.17;;
35126;SDS011;21300;52.006;5.798;2023-10-13T17:12:26;4.55;;;2.50;;
35126;SDS011;21300;52.006;5.798;2023-10-13T17:15:12;7.70;;;3.15;;
35126;SDS011;21300;52.006;5.798;2023-10-13T17:18:05;8.65;;;3.85;;
35126;SDS011;21300;52.006;5.798;2023-10-13T17:20:51;5.85;;;2.97;;
35126;SDS011;21300;52.006;5.798;2023-10-13T17:23:37;7.22;;;3.65;;
35126;SDS011;21300;52.006;5.798;2023-10-13T17:26:23;4.40;;;2.85;;
35126;SDS011;21300;52.006;5.798;2023-10-13T17:29:11;5.95;;;3.28;;
35126;SDS011;21300;52.006;5.798;2023-10-13T17:31:57;6.45;;;3.47;;
35126;SDS011;21300;52.006;5.798;2023-10-13T17:34:44;6.50;;;3.38;;
35126;SDS011;21300;52.006;5.798;2023-10-13T17:37:30;6.90;;;3.28;;
35126;SDS011;21300;52.006;5.798;2023-10-13T17:40:17;6.07;;;3.25;;